createdAt,value
2019-05-15T00:01:15.521Z,2.40
2019-05-15T00:03:46.058Z,2.10
2019-05-15T00:06:16.183Z,1.90
2019-05-15T00:08:47.992Z,2.20
2019-05-15T00:11:19.421Z,1.90
2019-05-15T00:13:50.974Z,2.20
2019-05-15T00:16:21.076Z,2.27
2019-05-15T00:18:51.231Z,2.07
2019-05-15T00:21:21.649Z,2.40
2019-05-15T00:23:54.203Z,2.50
2019-05-15T00:26:26.103Z,1.67
2019-05-15T00:29:09.472Z,2.43
2019-05-15T00:31:29.183Z,2.60
2019-05-15T00:34:00.655Z,2.43
2019-05-15T00:36:31.116Z,1.63
2019-05-15T00:39:01.125Z,1.90
2019-05-15T00:41:33.088Z,1.70
2019-05-15T00:44:03.169Z,1.50
2019-05-15T00:46:33.296Z,1.90
2019-05-15T00:49:03.488Z,1.70
2019-05-15T00:51:33.766Z,2.00
2019-05-15T00:54:03.823Z,1.50
2019-05-15T00:56:33.690Z,1.83
2019-05-15T00:59:04.107Z,1.60
2019-05-15T01:01:34.803Z,1.83
2019-05-15T01:04:04.943Z,1.80
2019-05-15T01:06:34.958Z,1.83
2019-05-15T01:09:08.370Z,1.97
2019-05-15T01:11:39.206Z,1.70
2019-05-15T01:14:12.193Z,1.90
2019-05-15T01:16:41.098Z,1.67
2019-05-15T01:19:11.184Z,1.73
2019-05-15T01:21:41.339Z,1.77
2019-05-15T01:24:11.417Z,1.67
2019-05-15T01:26:43.215Z,1.83
2019-05-15T01:29:13.444Z,1.57
2019-05-15T01:31:43.856Z,1.63
2019-05-15T01:34:14.295Z,1.97
2019-05-15T01:36:44.478Z,1.60
2019-05-15T01:39:14.926Z,1.90
2019-05-15T01:41:45.091Z,1.87
2019-05-15T01:44:15.358Z,1.80
2019-05-15T01:46:48.113Z,1.63
2019-05-15T01:49:18.628Z,2.00
2019-05-15T01:51:49.567Z,2.00
2019-05-15T01:54:19.659Z,2.43
2019-05-15T01:56:50.267Z,2.70
2019-05-15T01:59:20.295Z,2.13
2019-05-15T02:01:51.262Z,2.20
2019-05-15T02:04:21.307Z,2.30
2019-05-15T02:06:51.287Z,2.37
2019-05-15T02:09:21.339Z,2.10
2019-05-15T02:11:51.416Z,2.00
2019-05-15T02:14:21.728Z,2.50
2019-05-15T02:16:52.924Z,2.43
2019-05-15T02:19:23.570Z,2.20
2019-05-15T02:21:54.034Z,2.40
2019-05-15T02:24:24.752Z,2.70
2019-05-15T02:26:55.052Z,2.40
2019-05-15T02:29:25.390Z,2.63
2019-05-15T02:31:58.822Z,2.67
2019-05-15T02:34:30.009Z,2.50
2019-05-15T02:37:00.193Z,2.80
2019-05-15T02:39:30.431Z,2.60
2019-05-15T02:42:01.978Z,2.50
2019-05-15T02:44:32.065Z,2.70
2019-05-15T02:47:02.759Z,2.50
2019-05-15T02:49:34.501Z,2.80
2019-05-15T02:52:05.170Z,2.80
2019-05-15T02:54:35.334Z,2.60
2019-05-15T02:57:09.543Z,2.70
2019-05-15T02:59:39.983Z,2.87
2019-05-15T03:02:10.545Z,2.77
2019-05-15T03:04:41.595Z,2.90
2019-05-15T03:07:12.050Z,3.03
2019-05-15T03:09:42.046Z,2.70
2019-05-15T03:12:12.488Z,2.70
2019-05-15T03:14:42.875Z,2.50
2019-05-15T03:17:13.964Z,3.90
2019-05-15T03:19:44.438Z,3.17
2019-05-15T03:22:14.755Z,2.90
2019-05-15T03:24:46.041Z,2.83
2019-05-15T03:27:19.444Z,4.83
2019-05-15T03:29:49.426Z,2.70
2019-05-15T03:32:32.885Z,2.80
2019-05-15T03:34:56.975Z,2.20
2019-05-15T03:37:25.552Z,2.60
2019-05-15T03:39:55.815Z,2.80
2019-05-15T03:42:29.127Z,2.73
2019-05-15T03:44:59.670Z,2.70
2019-05-15T03:47:30.377Z,2.57
2019-05-15T03:50:02.168Z,2.70
2019-05-15T03:52:32.463Z,3.07
2019-05-15T03:55:02.960Z,2.90
2019-05-15T03:57:33.438Z,2.70
2019-05-15T04:00:03.712Z,2.50
2019-05-15T04:02:34.079Z,3.10
2019-05-15T04:05:05.265Z,2.73
2019-05-15T04:07:39.356Z,3.37
2019-05-15T04:10:10.456Z,3.17
2019-05-15T04:12:40.995Z,3.80
2019-05-15T04:15:13.674Z,2.80
2019-05-15T04:17:44.241Z,3.30
2019-05-15T04:20:14.688Z,3.53
2019-05-15T04:22:45.040Z,4.00
2019-05-15T04:25:15.260Z,3.60
2019-05-15T04:27:49.261Z,3.33
2019-05-15T04:30:19.592Z,3.50
2019-05-15T04:32:50.246Z,3.43
2019-05-15T04:35:20.326Z,3.30
2019-05-15T04:37:53.567Z,4.00
2019-05-15T04:40:24.009Z,4.10
2019-05-15T04:42:54.675Z,3.53
2019-05-15T04:45:24.825Z,3.67
2019-05-15T04:47:58.574Z,3.60
2019-05-15T04:50:28.831Z,3.57
2019-05-15T04:52:59.436Z,3.40
2019-05-15T04:55:29.570Z,3.30
2019-05-15T04:58:02.262Z,3.63
2019-05-15T05:00:54.240Z,3.40
2019-05-15T05:03:24.860Z,3.90
2019-05-15T05:05:55.401Z,4.23
2019-05-15T05:08:33.807Z,3.70
2019-05-15T05:11:09.666Z,3.50
2019-05-15T05:13:39.628Z,4.13
2019-05-15T05:16:29.433Z,3.73
2019-05-15T05:19:04.032Z,3.30
2019-05-15T05:21:38.410Z,3.50
2019-05-15T05:24:10.194Z,3.50
2019-05-15T05:26:45.288Z,3.47
2019-05-15T05:29:17.814Z,3.60
2019-05-15T05:31:49.164Z,3.33
2019-05-15T05:34:21.848Z,2.90
2019-05-15T05:36:52.123Z,3.77
2019-05-15T05:39:24.735Z,3.00
2019-05-15T05:41:58.794Z,3.43
2019-05-15T05:44:31.037Z,3.47
2019-05-15T05:47:01.337Z,3.90
2019-05-15T05:49:31.532Z,3.60
2019-05-15T05:52:03.746Z,3.47
2019-05-15T05:54:33.899Z,2.90
2019-05-15T05:57:04.090Z,3.40
2019-05-15T05:59:34.314Z,4.03
2019-05-15T06:02:04.617Z,3.97
2019-05-15T06:04:35.067Z,3.60
2019-05-15T06:07:13.131Z,3.97
2019-05-15T06:09:38.820Z,3.80
2019-05-15T06:12:09.993Z,3.83
2019-05-15T06:14:40.147Z,3.47
2019-05-15T06:17:10.219Z,3.83
2019-05-15T06:19:40.108Z,3.60
2019-05-15T06:22:10.164Z,3.60
2019-05-15T06:24:40.899Z,3.63
2019-05-15T06:27:11.074Z,4.43
2019-05-15T06:29:41.542Z,3.83
2019-05-15T06:32:11.597Z,3.80
2019-05-15T06:34:41.902Z,3.90
2019-05-15T06:37:12.874Z,3.50
2019-05-15T06:39:43.032Z,3.60
2019-05-15T06:42:13.864Z,3.87
2019-05-15T06:44:44.805Z,3.80
2019-05-15T06:47:15.067Z,4.00
2019-05-15T06:49:45.267Z,3.70
2019-05-15T06:52:15.326Z,3.40
2019-05-15T06:54:45.459Z,3.33
2019-05-15T06:57:18.214Z,3.83
2019-05-15T06:59:48.581Z,3.90
2019-05-15T07:02:19.142Z,3.30
2019-05-15T07:04:49.224Z,3.73
2019-05-15T07:07:19.563Z,3.40
2019-05-15T07:09:49.668Z,3.80
2019-05-15T07:12:20.986Z,3.53
2019-05-15T07:14:51.667Z,3.77
2019-05-15T07:17:21.765Z,3.30
2019-05-15T07:19:53.151Z,3.73
2019-05-15T07:22:23.190Z,3.80
2019-05-15T07:24:54.675Z,3.90
2019-05-15T07:27:24.696Z,3.97
2019-05-15T07:29:58.222Z,3.73
2019-05-15T07:32:28.558Z,4.10
2019-05-15T07:34:58.946Z,3.97
2019-05-15T07:37:29.130Z,4.10
2019-05-15T07:39:59.323Z,3.70
2019-05-15T07:42:29.527Z,3.67
2019-05-15T07:45:00.835Z,3.77
2019-05-15T07:47:32.299Z,3.97
2019-05-15T07:50:02.535Z,4.07
2019-05-15T07:52:34.100Z,4.60
2019-05-15T07:55:04.554Z,4.10
2019-05-15T07:57:39.398Z,4.13
2019-05-15T08:00:10.266Z,5.13
2019-05-15T08:02:41.880Z,3.77
2019-05-15T08:05:12.480Z,4.13
2019-05-15T08:07:42.592Z,3.63
2019-05-15T08:10:14.331Z,4.40
2019-05-15T08:12:44.463Z,3.83
2019-05-15T08:15:18.106Z,4.00
2019-05-15T08:18:04.222Z,3.60
2019-05-15T08:20:19.816Z,3.97
2019-05-15T08:22:49.874Z,3.73
2019-05-15T08:25:31.240Z,4.07
2019-05-15T08:27:51.863Z,4.20
2019-05-15T08:30:22.157Z,3.90
2019-05-15T08:32:52.247Z,4.03
2019-05-15T08:35:22.548Z,3.80
2019-05-15T08:37:52.911Z,4.60
2019-05-15T08:40:22.947Z,4.07
2019-05-15T08:42:58.057Z,3.83
2019-05-15T08:45:28.133Z,4.17
2019-05-15T08:47:58.542Z,4.30
2019-05-15T08:50:29.855Z,3.90
2019-05-15T08:53:00.495Z,3.67
2019-05-15T08:55:30.816Z,3.90
2019-05-15T08:58:06.691Z,3.80
2019-05-15T09:00:32.749Z,3.60
2019-05-15T09:03:03.570Z,3.40
2019-05-15T09:05:33.736Z,3.60
2019-05-15T09:08:03.821Z,3.67
2019-05-15T09:10:33.875Z,3.90
2019-05-15T09:13:03.938Z,2.90
2019-05-15T09:15:34.497Z,3.23
2019-05-15T09:18:14.724Z,3.33
2019-05-15T09:20:38.406Z,3.40
2019-05-15T09:23:09.062Z,3.60
2019-05-15T09:25:42.118Z,3.90
2019-05-15T09:28:13.608Z,3.80
2019-05-15T09:30:44.194Z,3.30
2019-05-15T09:33:14.329Z,3.40
2019-05-15T09:35:45.736Z,3.67
2019-05-15T09:38:18.183Z,3.70
2019-05-15T09:40:50.975Z,3.60
2019-05-15T09:43:21.082Z,3.63
2019-05-15T09:45:51.167Z,3.33
2019-05-15T09:48:21.170Z,2.93
2019-05-15T09:50:51.732Z,3.80
2019-05-15T09:53:23.384Z,3.47
2019-05-15T09:55:53.711Z,3.20
2019-05-15T09:58:24.410Z,3.40
2019-05-15T10:00:54.868Z,3.17
2019-05-15T10:03:25.030Z,2.90
2019-05-15T10:05:55.106Z,3.27
2019-05-15T10:08:25.091Z,2.57
2019-05-15T10:10:55.101Z,2.90
2019-05-15T10:13:26.212Z,2.80
2019-05-15T10:15:58.577Z,3.00
2019-05-15T10:18:30.209Z,3.90
2019-05-15T10:21:00.385Z,4.33
2019-05-15T10:23:30.430Z,3.50
2019-05-15T10:26:00.546Z,3.40
2019-05-15T10:28:30.744Z,2.90
2019-05-15T10:31:00.830Z,2.60
2019-05-15T10:33:31.248Z,3.17
2019-05-15T10:36:01.658Z,2.37
2019-05-15T10:38:31.733Z,2.60
2019-05-15T10:41:08.807Z,2.43
2019-05-15T10:43:34.983Z,2.70
2019-05-15T10:46:12.439Z,2.30
2019-05-15T10:48:38.699Z,2.50
2019-05-15T10:51:10.221Z,2.43
2019-05-15T10:53:41.340Z,2.70
2019-05-15T10:56:13.904Z,2.57
2019-05-15T10:58:44.282Z,2.50
2019-05-15T11:01:14.616Z,2.63
2019-05-15T11:03:45.889Z,2.70
2019-05-15T11:06:18.287Z,2.70
2019-05-15T11:08:51.578Z,2.70
2019-05-15T11:11:31.979Z,2.53
2019-05-15T11:14:02.595Z,2.40
2019-05-15T11:16:33.453Z,2.87
2019-05-15T11:19:04.991Z,2.60
2019-05-15T11:21:35.101Z,3.07
2019-05-15T11:24:05.802Z,2.63
2019-05-15T11:26:38.907Z,2.70
2019-05-15T11:29:09.694Z,2.30
2019-05-15T11:31:41.261Z,2.43
2019-05-15T11:34:11.387Z,2.53
2019-05-15T11:36:42.888Z,2.70
2019-05-15T11:39:12.979Z,2.80
2019-05-15T11:41:43.255Z,2.60
2019-05-15T11:44:13.810Z,2.57
2019-05-15T11:46:51.871Z,3.10
2019-05-15T11:49:22.691Z,3.20
2019-05-15T11:52:00.401Z,2.90
2019-05-15T11:54:28.460Z,2.50
2019-05-15T11:57:00.640Z,2.73
2019-05-15T11:59:30.690Z,3.13
2019-05-15T12:02:01.179Z,2.97
2019-05-15T12:04:34.159Z,2.80
2019-05-15T12:07:04.993Z,2.50
2019-05-15T12:09:35.206Z,3.27
2019-05-15T12:12:05.436Z,3.03
2019-05-15T12:14:38.705Z,3.23
2019-05-15T12:17:14.987Z,4.33
2019-05-15T12:19:39.883Z,2.80
2019-05-15T12:22:12.334Z,3.07
2019-05-15T12:24:43.029Z,2.97
2019-05-15T12:27:17.953Z,3.43
2019-05-15T12:29:45.279Z,2.63
2019-05-15T12:32:26.617Z,2.47
2019-05-15T12:34:49.493Z,3.20
2019-05-15T12:37:20.711Z,3.00
2019-05-15T13:00:10.541Z,3.80
2019-05-15T13:02:40.860Z,3.20
2019-05-15T13:05:12.158Z,2.47
2019-05-15T13:07:44.098Z,2.77
2019-05-15T13:10:14.593Z,2.63
2019-05-15T13:12:57.243Z,2.57
2019-05-15T13:15:18.998Z,2.80
2019-05-15T13:17:52.602Z,2.93
2019-05-15T13:20:21.158Z,2.67
2019-05-15T13:22:51.605Z,2.73
2019-05-15T13:25:23.479Z,2.47
2019-05-15T13:27:57.925Z,2.80
2019-05-15T13:30:29.975Z,3.33
2019-05-15T13:32:59.806Z,2.87
2019-05-15T13:35:30.032Z,2.87
2019-05-15T13:38:00.068Z,2.80
2019-05-15T13:40:37.506Z,2.93
2019-05-15T13:43:02.528Z,2.63
2019-05-15T13:45:32.611Z,2.93
2019-05-15T13:48:02.980Z,2.97
2019-05-15T13:50:34.185Z,2.80
2019-05-15T13:53:10.039Z,2.60
2019-05-15T13:55:42.542Z,2.90
2019-05-15T13:58:10.552Z,2.70
2019-05-15T14:00:40.627Z,2.70
2019-05-15T14:03:12.164Z,2.80
2019-05-15T14:05:44.968Z,2.77
2019-05-15T14:08:14.279Z,2.77
2019-05-15T14:10:44.359Z,2.87
2019-05-15T14:13:14.823Z,2.77
2019-05-15T14:15:48.648Z,3.03
2019-05-15T14:18:19.718Z,2.93
2019-05-15T14:20:50.531Z,3.10
2019-05-15T14:23:20.768Z,2.90
2019-05-15T14:25:51.314Z,3.33
2019-05-15T14:28:21.380Z,2.90
2019-05-15T14:30:51.623Z,3.23
2019-05-15T14:33:22.221Z,3.00
2019-05-15T14:35:52.307Z,3.00
2019-05-15T14:38:23.044Z,3.00
2019-05-15T14:40:54.042Z,3.30
2019-05-15T14:43:24.399Z,3.13
2019-05-15T14:45:54.476Z,2.77
2019-05-15T14:48:25.002Z,3.00
2019-05-15T14:50:55.575Z,2.77
2019-05-15T14:53:25.652Z,3.53
2019-05-15T14:55:55.802Z,3.10
2019-05-15T14:58:27.162Z,2.60
2019-05-15T15:01:03.018Z,3.20
2019-05-15T15:03:29.627Z,2.90
2019-05-15T15:05:59.826Z,2.80
2019-05-15T15:08:32.776Z,3.10
2019-05-15T15:11:03.136Z,3.03
2019-05-15T15:13:33.618Z,2.93
2019-05-15T15:16:03.718Z,3.17
2019-05-15T15:18:34.170Z,2.90
2019-05-15T15:21:05.033Z,3.30
2019-05-15T15:23:38.745Z,3.00
2019-05-15T15:26:08.949Z,3.30
2019-05-15T15:28:40.179Z,3.10
2019-05-15T15:31:10.758Z,2.90
2019-05-15T15:33:41.170Z,2.70
2019-05-15T15:36:11.471Z,2.63
2019-05-15T15:38:44.112Z,3.00
2019-05-15T15:41:14.674Z,3.10
2019-05-15T15:43:44.951Z,2.77
2019-05-15T15:46:15.094Z,2.80
2019-05-15T15:48:48.335Z,3.10
2019-05-15T15:51:19.140Z,2.90
2019-05-15T15:53:49.339Z,2.80
2019-05-15T15:56:19.567Z,2.70
2019-05-15T15:58:49.870Z,2.63
2019-05-15T16:01:23.467Z,2.93
2019-05-15T16:03:53.133Z,2.87
2019-05-15T16:06:24.687Z,2.70
2019-05-15T16:08:55.914Z,2.83
2019-05-15T16:11:27.971Z,2.70
2019-05-15T16:13:58.577Z,3.23
2019-05-15T16:16:31.182Z,4.93
2019-05-15T16:19:01.219Z,4.20
2019-05-15T16:21:31.352Z,2.97
2019-05-15T16:24:13.752Z,2.83
2019-05-15T16:26:34.934Z,3.10
2019-05-15T16:29:05.160Z,3.00
2019-05-15T16:31:35.467Z,3.40
2019-05-15T16:34:08.064Z,2.90
2019-05-15T16:36:38.516Z,2.93
2019-05-15T16:39:11.886Z,3.10
2019-05-15T16:41:41.234Z,3.07
2019-05-15T16:44:12.611Z,3.30
2019-05-15T16:46:43.673Z,3.00
2019-05-15T16:49:14.608Z,3.00
2019-05-15T16:51:44.775Z,3.03
2019-05-15T16:54:18.062Z,2.97
2019-05-15T16:56:48.817Z,2.60
2019-05-15T16:59:19.954Z,3.20
2019-05-15T17:01:50.129Z,3.10
2019-05-15T17:04:21.107Z,3.37
2019-05-15T17:06:51.244Z,2.87
2019-05-15T17:09:22.028Z,2.90
2019-05-15T17:11:52.347Z,3.33
2019-05-15T17:14:23.579Z,2.87
2019-05-15T17:16:53.699Z,3.20
2019-05-15T17:19:24.067Z,3.13
2019-05-15T17:21:54.080Z,2.70
2019-05-15T17:24:24.267Z,3.10
2019-05-15T17:26:55.896Z,2.60
2019-05-15T17:29:26.239Z,3.20
2019-05-15T17:31:57.789Z,2.50
2019-05-15T17:34:28.635Z,3.00
2019-05-15T17:37:01.838Z,2.80
2019-05-15T17:39:36.602Z,2.73
2019-05-15T17:42:05.637Z,2.80
2019-05-15T17:44:38.226Z,3.70
2019-05-15T17:47:09.854Z,3.07
2019-05-15T17:49:40.248Z,3.00
2019-05-15T17:52:10.348Z,2.90
2019-05-15T17:54:40.954Z,2.70
2019-05-15T17:57:12.043Z,3.17
2019-05-15T17:59:45.512Z,4.30
2019-05-15T18:02:15.917Z,2.90
2019-05-15T18:04:48.035Z,2.73
2019-05-15T18:07:18.305Z,3.13
2019-05-15T18:09:54.087Z,3.00
2019-05-15T18:12:20.646Z,3.23
2019-05-15T18:14:50.846Z,3.10
2019-05-15T18:17:22.946Z,3.10
2019-05-15T18:19:53.349Z,2.93
2019-05-15T18:22:23.782Z,3.50
2019-05-15T18:24:53.791Z,3.07
2019-05-15T18:27:25.718Z,3.20
2019-05-15T18:29:58.429Z,3.07
2019-05-15T18:32:31.212Z,3.07
2019-05-15T18:35:03.114Z,3.00
2019-05-15T18:37:35.154Z,3.33
2019-05-15T18:40:10.053Z,3.20
2019-05-15T18:42:39.564Z,3.20
2019-05-15T18:45:10.371Z,3.23
2019-05-15T18:47:40.472Z,2.97
2019-05-15T18:50:13.214Z,3.40
2019-05-15T18:52:43.724Z,3.90
2019-05-15T18:55:13.917Z,3.00
2019-05-15T18:57:43.733Z,3.00
2019-05-15T19:00:14.620Z,2.93
2019-05-15T19:02:45.117Z,2.63
2019-05-15T19:05:18.574Z,2.60
2019-05-15T19:07:49.649Z,4.37
2019-05-15T19:10:20.062Z,3.70
2019-05-15T19:12:50.183Z,3.40
2019-05-15T19:15:20.326Z,3.40
2019-05-15T19:17:51.051Z,3.20
2019-05-15T19:20:21.336Z,3.03
2019-05-15T19:22:51.496Z,3.33
2019-05-15T19:25:23.121Z,3.30
2019-05-15T19:27:54.392Z,3.13
2019-05-15T19:30:24.925Z,3.37
2019-05-15T19:32:54.940Z,3.53
2019-05-15T19:35:27.859Z,3.23
2019-05-15T19:37:58.563Z,3.53
2019-05-15T19:40:29.507Z,3.70
2019-05-15T19:43:03.885Z,3.73
2019-05-15T19:45:33.501Z,3.67
2019-05-15T19:48:03.930Z,3.60
2019-05-15T19:50:34.604Z,3.30
2019-05-15T19:53:05.064Z,3.40
2019-05-15T19:55:35.215Z,3.37
2019-05-15T19:58:05.780Z,4.37
2019-05-15T20:00:38.418Z,3.80
2019-05-15T20:03:08.467Z,3.40
2019-05-15T20:05:38.576Z,3.53
2019-05-15T20:08:10.802Z,3.63
2019-05-15T20:10:40.928Z,3.40
2019-05-15T20:13:11.360Z,3.00
2019-05-15T20:15:41.484Z,3.50
2019-05-15T20:18:13.457Z,3.60
2019-05-15T20:20:44.227Z,3.23
2019-05-15T20:23:14.656Z,3.50
2019-05-15T20:25:44.702Z,3.60
2019-05-15T20:28:15.118Z,3.40
2019-05-15T20:30:45.147Z,3.80
2019-05-15T20:33:17.857Z,3.40
2019-05-15T20:35:48.122Z,3.77
2019-05-15T20:38:18.185Z,3.43
2019-05-15T20:40:48.715Z,3.80
2019-05-15T20:43:19.058Z,3.70
2019-05-15T20:45:49.107Z,3.57
2019-05-15T20:48:21.046Z,3.70
2019-05-15T20:50:51.354Z,4.20
2019-05-15T20:53:21.715Z,3.80
2019-05-15T20:55:51.901Z,3.67
2019-05-15T20:58:22.499Z,3.40
2019-05-15T21:00:53.902Z,4.43
2019-05-15T21:03:24.952Z,3.67
2019-05-15T21:05:57.750Z,6.17
2019-05-15T21:08:28.884Z,3.83
2019-05-15T21:10:59.240Z,3.50
2019-05-15T21:13:29.822Z,3.80
2019-05-15T21:16:01.423Z,3.97
2019-05-15T21:18:31.571Z,4.07
2019-05-15T21:21:02.331Z,3.70
2019-05-15T21:23:32.330Z,3.30
2019-05-15T21:26:02.401Z,3.23
2019-05-15T21:28:32.666Z,3.43
2019-05-15T21:31:02.970Z,3.33
2019-05-15T21:33:33.306Z,3.73
2019-05-15T21:36:03.656Z,7.77
2019-05-15T21:38:34.427Z,5.10
2019-05-15T21:41:04.482Z,7.00
2019-05-15T21:43:34.648Z,6.43
2019-05-15T21:46:05.085Z,5.70
2019-05-15T21:48:38.093Z,5.17
2019-05-15T21:51:11.388Z,6.27
2019-05-15T21:53:39.980Z,4.27
2019-05-15T21:56:10.089Z,4.33
2019-05-15T21:58:40.115Z,4.50
2019-05-15T22:01:10.875Z,5.37
2019-05-15T22:03:41.548Z,3.97
2019-05-15T22:06:11.700Z,3.90
2019-05-15T22:08:42.208Z,4.07
2019-05-15T22:11:12.323Z,4.57
2019-05-15T22:13:42.792Z,4.00
2019-05-15T22:16:12.955Z,3.70
2019-05-15T22:18:43.704Z,4.00
2019-05-15T22:21:13.863Z,3.77
2019-05-15T22:23:43.959Z,3.97
2019-05-15T22:26:14.024Z,4.10
2019-05-15T22:28:44.023Z,3.60
2019-05-15T22:31:14.494Z,3.77
2019-05-15T22:33:44.570Z,4.17
2019-05-15T22:36:14.903Z,3.70
2019-05-15T22:38:44.947Z,3.83
2019-05-15T22:41:15.310Z,3.57
2019-05-15T22:43:45.384Z,3.40
2019-05-15T22:46:18.605Z,4.03
2019-05-15T22:48:48.707Z,4.10
2019-05-15T22:51:18.775Z,3.27
2019-05-15T22:53:49.026Z,3.60
2019-05-15T22:56:20.524Z,3.40
2019-05-15T22:58:50.459Z,3.57
2019-05-15T23:01:21.171Z,3.43
2019-05-15T23:03:51.520Z,4.00
2019-05-15T23:06:21.595Z,3.57
2019-05-15T23:08:52.094Z,3.33
2019-05-15T23:11:24.585Z,4.33
2019-05-15T23:13:54.258Z,3.50
2019-05-15T23:16:24.263Z,3.50
2019-05-15T23:18:54.258Z,3.47
2019-05-15T23:21:25.414Z,3.70
2019-05-15T23:23:55.402Z,4.20
2019-05-15T23:26:27.804Z,4.37
2019-05-15T23:28:58.540Z,3.50
2019-05-15T23:31:29.057Z,3.87
2019-05-15T23:33:59.119Z,3.77
2019-05-15T23:36:29.547Z,3.70
2019-05-15T23:38:59.590Z,3.63
2019-05-15T23:41:29.843Z,3.50
2019-05-15T23:43:59.919Z,3.97
2019-05-15T23:46:30.296Z,3.43
2019-05-15T23:49:00.319Z,3.80
2019-05-15T23:51:30.450Z,3.63
2019-05-15T23:54:00.448Z,4.00
2019-05-15T23:56:30.413Z,3.67
2019-05-15T23:59:00.713Z,3.93
